Wednesday, February 21, 2018, 8:12 PM EST
Back to Local

KCXY, Harrisburg Capital City

Location: New Cumberland, PA, United States Lat: 40.217
Local Time: 8:12 PM EST ( 1:12 GMT) Lon: -76.85
Time Zone: US/Eastern Elev: 347 ft

Show me the last for .
Show Decoded

2018-02-21 18:56 METAR KCXY 212356Z 32009KT 10SM OVC050 22/13 A3031 RMK AO2 SLP265 60000
                 T02220133 10283 20222 53037 =
2018-02-21 17:56 METAR KCXY 212256Z 25009KT 10SM SCT047 BKN055 BKN070 23/17 A3027 RMK AO2 SLP251
                 T02330172 =
2018-02-21 16:56 METAR KCXY 212156Z 21004KT 10SM BKN065 OVC090 25/17 A3022 RMK AO2 RAB18E40
                 SLP232 P0000 T02500167 =
2018-02-21 15:56 METAR KCXY 212056Z 20007KT 10SM SCT075 BKN110 27/16 A3020 RMK AO2 SLP228
                 T02670156 55005 =
2018-02-21 14:56 METAR KCXY 211956Z 21011KT 10SM SCT075 SCT085 SCT100 27/15 A3020 RMK AO2 SLP226
                 T02720150 =
2018-02-21 13:56 METAR KCXY 211856Z 21012G20KT 10SM CLR 28/15 A3020 RMK AO2 SLP226 T02780150 =
2018-02-21 12:56 METAR KCXY 211756Z 20009KT 10SM CLR 28/14 A3022 RMK AO2 SLP231 T02780144 10278
                 20089 58024 =
2018-02-21 11:56 METAR KCXY 211656Z 22010KT 10SM CLR 25/15 A3025 RMK AO2 SLP243 T02500150 =
2018-02-21 10:56 METAR KCXY 211556Z VRB04KT 10SM CLR 23/14 A3027 RMK AO2 SLP250 T02280144 =
2018-02-21 09:56 METAR KCXY 211456Z 05003KT 10SM SCT042 17/12 A3029 RMK AO2 SLP257 T01670117
                 58001 =
2018-02-21 08:56 METAR KCXY 211356Z 00000KT 10SM CLR 11/10 A3030 RMK AO2 SLP262 T01110100 =
2018-02-21 08:32 METAR KCXY 211332Z COR 00000KT 10SM CLR 11/11 A3030 T01110106 =
2018-02-21 08:23 METAR KCXY 211323Z 00000KT 5SM R08/1400VP6000FT BR FEW002 11/10 A3031 RMK AO2
                 VSBY S-W 1/4SM T01060100 =
2018-02-21 07:56 METAR KCXY 211256Z 00000KT 1/8SM R08/0500V0700FT FG VV001 10/09 A3030 RMK AO2
                 SLP261 T01000094 =
2018-02-21 06:56 METAR KCXY 211156Z 00000KT M1/4SM R08/0800V1000FT FG VV002 10/09 A3029 RMK AO2
                 SLP260 T01000089 10172 20078 53006 =
2018-02-21 06:46 METAR KCXY 211146Z 00000KT 1/4SM R08/1000V1400FT FG VV002 09/08 A3029 RMK AO2
                 T00890083 =
2018-02-21 06:31 METAR KCXY 211131Z AUTO 13003KT 1/4SM R08/2000V4000FT FG VV002 09/08 A3028 RMK
                 AO2 T00940083 =
2018-02-21 06:13 METAR KCXY 211113Z AUTO 00000KT 1/4SM R08/2000VP6000FT FG VV003 08/08 A3028 RMK
                 AO2 T00830078 =
2018-02-21 06:06 METAR KCXY 211106Z AUTO 00000KT 1SM R08/2400VP6000FT BR VV003 09/09 A3028 RMK
                 AO2 T00940089 =
2018-02-21 05:56 METAR KCXY 211056Z AUTO 00000KT 1 1/2SM R08/3000VP6000FT BR CLR 09/08 A3029 RMK
                 AO2 VIS 3/4V5 SLP258 T00890083 =
2018-02-21 05:50 METAR KCXY 211050Z AUTO 00000KT 2SM R08/4500VP6000FT BR CLR 09/08 A3029 RMK AO2
                 VIS 3/4V5 =
2018-02-21 05:39 METAR KCXY 211039Z AUTO 00000KT 1SM R08/2200VP6000FT BR CLR 09/08 A3028 RMK AO2
                 VIS 1/2V5 T00890083 =
2018-02-21 05:28 METAR KCXY 211028Z AUTO 00000KT 1 3/4SM R08/3500VP6000FT BR CLR 09/08 A3028 RMK
                 AO2 VIS 1/2V5 T00940083 =
2018-02-21 05:07 METAR KCXY 211007Z AUTO 00000KT 7SM CLR 10/09 A3028 RMK AO2 T01000089 =
2018-02-21 04:56 METAR KCXY 210956Z AUTO 00000KT 2 1/2SM BR CLR 09/08 A3028 RMK AO2 VIS 1V5
                 SLP254 T00940083 =
2018-02-21 03:56 METAR KCXY 210856Z AUTO 00000KT 6SM BR CLR 11/10 A3027 RMK AO2 SLP252 T01110100
                 55003 =
2018-02-21 02:56 METAR KCXY 210756Z AUTO 00000KT 10SM CLR 13/11 A3027 RMK AO2 SLP251 T01330111 =
2018-02-21 01:56 METAR KCXY 210656Z AUTO 00000KT 10SM CLR 14/12 A3028 RMK AO2 SLP254 T01390117 =
2018-02-21 00:56 METAR KCXY 210556Z AUTO 00000KT 10SM CLR 17/13 A3028 RMK AO2 SLP255 T01720128
                 10217 20133 50002 =
2018-02-20 23:56 METAR KCXY 210456Z AUTO 22003KT 10SM CLR 19/13 A3028 RMK AO2 SLP255 T01890128
                 402440061 =
2018-02-20 22:56 METAR KCXY 210356Z AUTO 20007G15KT 160V230 10SM CLR 19/12 A3028 RMK AO2 SLP255
                 T01940122 =
2018-02-20 21:56 METAR KCXY 210256Z AUTO 20008KT 10SM CLR 21/12 A3028 RMK AO2 SLP254 T02060122
                 53001 =
2018-02-20 20:56 METAR KCXY 210156Z 33004KT 7SM CLR 14/11 A3027 RMK AO2 SLP253 T01390111 =

Support USWX by starting your Amazon purchase here.